Time;durP1;ratioP1;P1;durP2;ratioP2;P2;SDS_P1;SDS_P2;PMS_P1;PMS_P2;Temp;Humidity;BMP_temperature;BMP_pressure;BME280_temperature;BME280_humidity;BME280_pressure;Samples;Min_cycle;Max_cycle;Signal;HPM_P1;HPM_P2
2022/01/22 00:00:54;;;;;;;15.13;2.17;;;6.80;99.90;;;;;;5009613;28;20041;-76
2022/01/22 00:03:20;;;;;;;20.42;2.40;;;6.80;99.90;;;;;;5006907;28;20135;-76
2022/01/22 00:05:47;;;;;;;11.63;2.65;;;6.80;99.90;;;;;;5025705;28;20073;-76
2022/01/22 00:08:12;;;;;;;29.80;2.08;;;6.80;99.90;;;;;;5001935;28;20069;-76
2022/01/22 00:10:44;;;;;;;12.93;2.47;;;6.90;99.90;;;;;;5001127;28;20603;-76
2022/01/22 00:15:46;;;;;;;7.85;2.30;;;6.90;99.90;;;;;;5017221;28;20137;-76
2022/01/22 00:18:12;;;;;;;7.85;2.60;;;6.80;99.90;;;;;;5018732;28;20151;-76
2022/01/22 00:20:38;;;;;;;19.70;2.95;;;6.80;99.90;;;;;;5009216;28;20046;-76
2022/01/22 00:23:05;;;;;;;29.90;3.35;;;6.90;99.90;;;;;;5008999;28;20073;-76
2022/01/22 00:25:32;;;;;;;29.65;3.33;;;6.90;99.90;;;;;;5014344;28;20061;-76
2022/01/22 00:27:57;;;;;;;23.88;2.78;;;6.90;99.90;;;;;;5025001;28;20076;-76
2022/01/22 00:30:25;;;;;;;9.75;2.08;;;6.90;99.90;;;;;;5008585;28;20068;-76
2022/01/22 00:32:52;;;;;;;18.50;3.20;;;6.90;99.90;;;;;;5009811;28;20137;-76
2022/01/22 00:35:20;;;;;;;6.63;1.30;;;6.90;99.90;;;;;;4998375;28;20056;-76
2022/01/22 00:37:48;;;;;;;14.60;1.83;;;6.90;99.90;;;;;;5006946;28;20447;-76
2022/01/22 00:40:15;;;;;;;2.90;1.70;;;6.90;99.90;;;;;;5018786;28;20080;-76
2022/01/22 00:42:42;;;;;;;5.82;1.65;;;6.80;99.90;;;;;;5009152;28;20141;-76
2022/01/22 00:45:09;;;;;;;8.75;1.75;;;6.90;99.90;;;;;;5008755;28;20041;-76
2022/01/22 00:47:35;;;;;;;25.33;1.63;;;6.90;99.90;;;;;;5025190;28;20502;-76
2022/01/22 00:50:00;;;;;;;12.13;2.50;;;6.90;99.90;;;;;;5011586;28;20077;-76
2022/01/22 00:52:26;;;;;;;17.77;2.72;;;6.90;99.90;;;;;;5009095;28;20119;-76
2022/01/22 00:54:52;;;;;;;12.45;2.97;;;6.90;99.90;;;;;;5017726;28;20607;-76
2022/01/22 00:57:17;;;;;;;9.18;1.60;;;6.90;99.90;;;;;;4992350;28;20543;-76
2022/01/22 00:59:43;;;;;;;20.23;2.72;;;6.90;99.90;;;;;;4995015;28;20057;-76
2022/01/22 01:02:08;;;;;;;24.00;2.38;;;6.90;99.90;;;;;;5011062;28;20144;-75
2022/01/22 01:04:36;;;;;;;21.02;2.25;;;6.90;99.90;;;;;;4991634;28;20526;-76
2022/01/22 01:07:03;;;;;;;6.22;2.70;;;6.90;99.90;;;;;;5009809;28;20046;-76
2022/01/22 01:09:28;;;;;;;20.27;2.25;;;6.90;99.90;;;;;;5005585;28;20527;-76
2022/01/22 01:11:59;;;;;;;5.60;1.40;;;6.90;99.90;;;;;;5007214;28;20041;-76
2022/01/22 01:14:32;;;;;;;11.27;2.28;;;7.00;99.90;;;;;;5004567;28;20049;-76
2022/01/22 01:17:11;;;;;;;6.13;1.00;;;6.90;99.90;;;;;;5004243;28;20050;-76
2022/01/22 01:33:41;;;;;;;12.13;2.05;;;6.90;99.90;;;;;;5028917;28;20049;-76
2022/01/22 01:36:07;;;;;;;16.60;1.90;;;7.00;99.90;;;;;;5027997;28;20052;-76
2022/01/22 01:38:39;;;;;;;6.13;1.20;;;6.90;99.90;;;;;;5011630;28;20124;-76
2022/01/22 01:41:14;;;;;;;11.30;2.03;;;6.90;99.90;;;;;;5028715;28;20565;-76
2022/01/22 01:43:40;;;;;;;3.20;0.93;;;6.90;99.90;;;;;;5012275;28;20050;-76
2022/01/22 01:46:05;;;;;;;3.03;0.95;;;6.90;99.90;;;;;;5023941;28;20421;-76
2022/01/22 01:48:37;;;;;;;6.85;1.17;;;6.90;99.90;;;;;;5009036;28;20116;-76
2022/01/22 01:51:04;;;;;;;17.60;2.20;;;7.00;99.90;;;;;;4992721;28;20038;-76
2022/01/22 01:53:42;;;;;;;8.93;1.77;;;7.00;99.90;;;;;;5010517;28;20104;-76
2022/01/22 01:57:27;;;;;;;9.95;1.23;;;6.90;99.90;;;;;;5027700;28;20091;-76
2022/01/22 01:58:55;;;;;;;1.13;0.45;;;6.90;99.90;;;;;;5015639;28;20504;-76
2022/01/22 02:01:21;;;;;;;9.70;2.30;;;6.90;99.90;;;;;;5009030;28;20403;-76
2022/01/22 02:03:46;;;;;;;17.85;4.15;;;6.90;99.90;;;;;;5010903;28;20052;-76
2022/01/22 02:06:12;;;;;;;12.32;1.95;;;6.90;99.90;;;;;;5020277;28;20056;-76
2022/01/22 02:08:39;;;;;;;12.48;1.88;;;6.90;99.90;;;;;;5008368;28;20616;-76
2022/01/22 02:11:05;;;;;;;5.32;1.20;;;6.90;99.90;;;;;;5026148;28;20045;-76
2022/01/22 02:13:47;;;;;;;6.72;1.75;;;6.90;99.90;;;;;;5010588;28;20080;-76
2022/01/22 02:24:55;;;;;;;6.90;1.35;;;6.90;99.90;;;;;;5026345;28;20141;-76
2022/01/22 02:27:21;;;;;;;8.00;1.55;;;6.90;99.90;;;;;;5002486;28;20435;-76
2022/01/22 02:29:47;;;;;;;1.67;0.82;;;6.90;99.90;;;;;;5018566;28;20045;-76
2022/01/22 02:35:14;;;;;;;8.98;1.27;;;6.90;99.90;;;;;;5019776;28;20120;-76
2022/01/22 02:37:46;;;;;;;11.80;2.25;;;6.90;99.90;;;;;;5000350;28;20600;-76
2022/01/22 02:40:23;;;;;;;1.25;0.60;;;6.90;99.90;;;;;;5000698;28;20040;-76
2022/01/22 02:42:49;;;;;;;11.80;1.67;;;6.90;99.90;;;;;;5000558;28;20049;-76
2022/01/22 02:45:18;;;;;;;6.78;1.27;;;6.90;99.90;;;;;;5001504;28;20073;-76
2022/01/22 02:47:45;;;;;;;2.50;0.65;;;6.80;99.90;;;;;;4997842;28;20045;-76
2022/01/22 02:50:11;;;;;;;8.82;2.20;;;6.90;99.90;;;;;;5006918;28;20042;-76
2022/01/22 02:52:37;;;;;;;7.82;1.08;;;6.80;99.90;;;;;;5009734;28;20044;-76
2022/01/22 02:55:05;;;;;;;2.28;0.80;;;6.80;99.90;;;;;;5009964;28;20730;-76
2022/01/22 02:57:32;;;;;;;34.05;1.10;;;6.80;99.90;;;;;;5001133;28;20038;-76
2022/01/22 03:00:00;;;;;;;17.42;1.80;;;6.80;99.90;;;;;;5008051;28;20441;-76
2022/01/22 03:02:26;;;;;;;4.78;0.98;;;6.80;99.90;;;;;;5025996;28;20052;-76
2022/01/22 03:04:51;;;;;;;2.90;0.75;;;6.80;99.90;;;;;;5020283;28;20037;-76
2022/01/22 03:07:17;;;;;;;0.90;0.40;;;6.80;99.90;;;;;;5011819;28;20050;-76
2022/01/22 03:09:45;;;;;;;3.08;1.10;;;6.80;99.90;;;;;;5002084;28;20045;-76
2022/01/22 03:12:30;;;;;;;20.17;1.50;;;6.80;99.90;;;;;;5027267;28;20096;-76
2022/01/22 03:27:56;;;;;;;7.28;1.40;;;6.70;99.90;;;;;;5020585;28;20045;-76
2022/01/22 03:30:22;;;;;;;4.78;1.05;;;6.70;99.90;;;;;;5008330;28;20521;-76
2022/01/22 03:32:51;;;;;;;6.35;1.38;;;6.70;99.90;;;;;;5023232;28;20098;-76
2022/01/22 03:37:46;;;;;;;4.97;1.45;;;6.70;99.90;;;;;;5027017;28;20140;-76
2022/01/22 03:40:13;;;;;;;2.97;0.90;;;6.70;99.90;;;;;;5025013;28;20045;-76
2022/01/22 03:42:40;;;;;;;3.90;1.38;;;6.80;99.90;;;;;;5009390;28;20045;-76
2022/01/22 03:45:09;;;;;;;2.35;1.45;;;6.80;99.90;;;;;;5018152;28;20606;-76
2022/01/22 03:47:35;;;;;;;6.80;1.60;;;6.70;99.90;;;;;;5024323;28;20136;-76
2022/01/22 03:50:01;;;;;;;3.45;0.95;;;6.70;99.90;;;;;;5008620;28;20128;-76
2022/01/22 03:52:26;;;;;;;5.07;1.45;;;6.70;99.90;;;;;;5009940;28;20060;-76
2022/01/22 03:54:52;;;;;;;3.22;0.95;;;6.70;99.90;;;;;;5005805;28;20572;-76
2022/01/22 03:57:18;;;;;;;10.73;2.63;;;6.70;99.90;;;;;;5009053;28;20048;-76
2022/01/22 03:59:46;;;;;;;7.47;1.75;;;6.70;99.90;;;;;;5023870;28;20048;-76
2022/01/22 04:04:41;;;;;;;7.93;1.70;;;6.70;99.90;;;;;;5021387;28;20646;-76
2022/01/22 04:07:37;;;;;;;7.35;1.90;;;6.70;99.90;;;;;;5009310;28;20102;-76
2022/01/22 04:09:56;;;;;;;6.07;1.33;;;6.70;99.90;;;;;;5017068;28;20103;-76
2022/01/22 04:12:31;;;;;;;10.40;1.83;;;6.70;99.90;;;;;;5007836;28;20168;-76
2022/01/22 04:15:01;;;;;;;3.17;0.25;;;6.70;99.90;;;;;;5025395;28;20085;-76
2022/01/22 04:25:31;;;;;;;7.65;1.38;;;6.70;99.90;;;;;;5007717;28;20537;-76
2022/01/22 04:27:57;;;;;;;0.43;0.40;;;6.70;99.90;;;;;;5023998;28;20037;-76
2022/01/22 04:30:24;;;;;;;5.60;0.90;;;6.70;99.90;;;;;;5006429;28;20061;-76
2022/01/22 04:32:50;;;;;;;4.70;0.90;;;6.70;99.90;;;;;;5019392;28;20058;-76
2022/01/22 04:35:17;;;;;;;3.28;0.85;;;6.70;99.90;;;;;;5022574;28;20052;-76
2022/01/22 04:37:44;;;;;;;4.65;1.02;;;6.70;99.90;;;;;;5003008;28;20042;-76
2022/01/22 04:40:10;;;;;;;11.52;1.50;;;6.70;99.90;;;;;;5006747;28;20034;-76
2022/01/22 04:42:38;;;;;;;8.13;0.80;;;6.70;99.90;;;;;;5008129;28;20049;-76
2022/01/22 04:45:14;;;;;;;0.63;0.55;;;6.70;99.90;;;;;;5013196;28;20045;-76
2022/01/22 04:47:52;;;;;;;2.25;0.90;;;6.70;99.90;;;;;;5028983;28;20053;-76
2022/01/22 04:55:34;;;;;;;5.68;1.33;;;6.70;99.90;;;;;;5022778;28;20426;-76
2022/01/22 04:58:04;;;;;;;4.60;1.52;;;6.70;99.90;;;;;;5010616;28;20049;-76
2022/01/22 05:00:33;;;;;;;35.97;1.08;;;6.70;99.90;;;;;;5022800;28;20748;-76
2022/01/22 05:03:00;;;;;;;18.17;2.38;;;6.60;99.90;;;;;;5017975;28;20049;-76
2022/01/22 05:05:26;;;;;;;1.48;1.35;;;6.70;99.90;;;;;;5012746;28;20387;-76
2022/01/22 05:07:52;;;;;;;8.05;1.50;;;6.60;99.90;;;;;;5022711;28;20045;-76
2022/01/22 05:10:18;;;;;;;9.60;1.58;;;6.60;99.90;;;;;;5002727;28;20548;-76
2022/01/22 05:12:44;;;;;;;1.17;0.50;;;6.70;99.90;;;;;;5012642;28;20497;-76
2022/01/22 05:15:10;;;;;;;8.68;1.75;;;6.60;99.90;;;;;;5012732;28;20077;-76
2022/01/22 05:17:39;;;;;;;9.00;3.03;;;6.70;99.90;;;;;;5011979;28;20057;-76
2022/01/22 05:20:12;;;;;;;4.20;1.15;;;6.70;99.90;;;;;;5009455;28;20060;-76
2022/01/22 05:28:19;;;;;;;3.63;1.10;;;6.60;99.90;;;;;;5011476;28;20128;-76
2022/01/22 05:38:27;;;;;;;1.63;1.30;;;6.60;99.90;;;;;;5009688;28;20130;-76
2022/01/22 05:40:53;;;;;;;3.17;0.82;;;6.70;99.90;;;;;;5002106;28;20124;-76
2022/01/22 05:43:19;;;;;;;14.80;1.95;;;6.70;99.90;;;;;;5005943;28;20171;-76
2022/01/22 05:45:44;;;;;;;0.88;0.47;;;6.70;99.90;;;;;;5021340;28;20111;-76
2022/01/22 05:48:10;;;;;;;5.25;1.13;;;6.70;99.90;;;;;;5022065;28;20053;-76
2022/01/22 05:50:48;;;;;;;2.38;0.63;;;6.60;99.90;;;;;;5001961;28;20042;-76
2022/01/22 05:53:30;;;;;;;2.75;1.10;;;6.70;99.90;;;;;;5023733;28;20081;-76
2022/01/22 06:01:06;;;;;;;9.80;1.92;;;6.60;99.90;;;;;;5017502;28;20045;-76
2022/01/22 06:03:32;;;;;;;3.35;0.98;;;6.60;99.90;;;;;;5028219;28;20059;-76
2022/01/22 06:05:57;;;;;;;2.03;0.95;;;6.60;99.90;;;;;;5011228;28;20133;-77
2022/01/22 06:08:29;;;;;;;9.50;1.70;;;6.60;99.90;;;;;;5023471;28;20041;-76
2022/01/22 06:10:56;;;;;;;0.82;0.82;;;6.60;99.90;;;;;;5028319;28;20055;-76
2022/01/22 06:13:29;;;;;;;1.20;0.77;;;6.70;99.90;;;;;;5026105;28;20429;-76
2022/01/22 06:15:54;;;;;;;1.23;0.80;;;6.70;99.90;;;;;;5026693;28;20049;-76
2022/01/22 06:18:20;;;;;;;4.68;1.38;;;6.70;99.90;;;;;;5008548;28;20050;-76
2022/01/22 06:20:45;;;;;;;7.68;1.60;;;6.70;99.90;;;;;;5023356;28;20045;-76
2022/01/22 06:23:11;;;;;;;7.45;1.17;;;6.70;99.90;;;;;;5010720;28;20497;-76
2022/01/22 06:25:36;;;;;;;2.17;1.10;;;6.70;99.90;;;;;;5010984;28;20753;-76
2022/01/22 06:28:03;;;;;;;3.10;1.58;;;6.60;99.90;;;;;;5010692;28;20055;-76
2022/01/22 06:30:29;;;;;;;5.20;0.98;;;6.60;99.90;;;;;;5009040;28;20041;-76
2022/01/22 06:32:55;;;;;;;4.28;1.27;;;6.60;99.90;;;;;;5006741;28;20044;-76
2022/01/22 06:35:20;;;;;;;6.63;1.20;;;6.60;99.90;;;;;;5011394;28;20553;-76
2022/01/22 06:37:46;;;;;;;1.58;1.13;;;6.60;99.90;;;;;;5022415;28;20137;-76
2022/01/22 06:42:37;;;;;;;3.70;1.60;;;6.60;99.90;;;;;;5027877;28;20099;-76
2022/01/22 06:45:04;;;;;;;2.20;0.77;;;6.60;99.90;;;;;;5025759;28;20045;-76
2022/01/22 06:47:30;;;;;;;7.85;1.90;;;6.60;99.90;;;;;;5010544;28;20387;-76
2022/01/22 06:49:56;;;;;;;14.05;2.50;;;6.60;99.90;;;;;;5010845;28;20115;-76
2022/01/22 06:52:22;;;;;;;6.13;1.58;;;6.60;99.90;;;;;;5010276;28;20045;-76
2022/01/22 06:54:48;;;;;;;0.25;0.25;;;6.60;99.90;;;;;;5010309;28;20532;-76
2022/01/22 06:57:14;;;;;;;3.25;0.82;;;6.60;99.90;;;;;;5027548;28;20080;-76
2022/01/22 06:59:40;;;;;;;2.42;1.10;;;6.60;99.90;;;;;;5006787;28;20049;-76
2022/01/22 07:02:06;;;;;;;9.32;2.10;;;6.60;99.90;;;;;;5010132;28;20464;-76
2022/01/22 07:04:37;;;;;;;0.38;0.38;;;6.60;99.90;;;;;;5018311;28;20410;-76
2022/01/22 07:07:04;;;;;;;3.35;1.80;;;6.50;99.90;;;;;;5001518;28;20048;-76
2022/01/22 07:09:30;;;;;;;5.15;1.65;;;6.50;99.90;;;;;;5018480;28;20057;-77
2022/01/22 07:11:55;;;;;;;7.38;1.65;;;6.60;99.90;;;;;;5022056;28;20044;-76
2022/01/22 07:14:21;;;;;;;4.90;1.52;;;6.50;99.90;;;;;;5027080;28;20104;-76
2022/01/22 07:16:46;;;;;;;7.93;1.83;;;6.50;99.90;;;;;;4992654;28;20144;-76
2022/01/22 07:19:17;;;;;;;7.30;1.80;;;6.50;99.90;;;;;;5023063;28;20046;-76
2022/01/22 07:21:46;;;;;;;6.43;0.93;;;6.50;99.90;;;;;;5009926;28;20081;-76
2022/01/22 07:24:45;;;;;;;1.52;0.85;;;6.50;99.90;;;;;;5015583;28;20071;-76
2022/01/22 07:27:04;;;;;;;2.50;1.27;;;6.40;99.90;;;;;;5006419;28;20064;-76
2022/01/22 07:29:30;;;;;;;0.80;0.77;;;6.40;99.90;;;;;;5000586;28;20342;-76
2022/01/22 07:32:00;;;;;;;6.88;1.63;;;6.40;99.90;;;;;;5007323;28;20125;-76
2022/01/22 07:34:28;;;;;;;5.00;1.77;;;6.40;99.90;;;;;;5011107;28;20103;-76
2022/01/22 07:36:54;;;;;;;4.15;1.67;;;6.40;99.90;;;;;;5017197;28;20037;-76
2022/01/22 07:39:19;;;;;;;0.20;0.20;;;6.40;99.90;;;;;;5011193;28;20125;-76
2022/01/22 07:41:46;;;;;;;5.43;1.92;;;6.40;99.90;;;;;;4991234;28;20069;-76
2022/01/22 07:44:12;;;;;;;4.65;1.70;;;6.40;99.90;;;;;;5019678;28;20049;-76
2022/01/22 07:46:37;;;;;;;0.75;0.73;;;6.30;99.90;;;;;;5013547;28;20037;-76
2022/01/22 07:49:05;;;;;;;5.05;2.65;;;6.30;99.90;;;;;;5010498;28;20052;-76
2022/01/22 07:51:31;;;;;;;4.72;1.80;;;6.30;99.90;;;;;;4999024;28;20034;-76
2022/01/22 07:53:56;;;;;;;5.32;1.73;;;6.30;99.90;;;;;;5002615;28;20095;-76
2022/01/22 07:56:23;;;;;;;0.40;0.40;;;6.30;99.90;;;;;;5018514;28;20038;-76
2022/01/22 07:58:48;;;;;;;0.55;0.55;;;6.20;99.90;;;;;;5011682;28;20072;-76
2022/01/22 08:01:14;;;;;;;0.20;0.20;;;6.20;99.90;;;;;;5010280;28;20409;-76
2022/01/22 08:03:40;;;;;;;2.70;0.57;;;6.20;99.90;;;;;;5022893;28;20689;-76
2022/01/22 08:06:05;;;;;;;1.92;0.85;;;6.20;99.90;;;;;;5003902;28;20480;-76
2022/01/22 08:08:31;;;;;;;1.52;0.60;;;6.20;99.90;;;;;;5025826;28;20037;-76
2022/01/22 08:10:56;;;;;;;0.82;0.52;;;6.20;99.90;;;;;;5002841;28;20168;-76
2022/01/22 08:13:23;;;;;;;9.07;1.00;;;6.30;99.90;;;;;;5015892;28;20111;-76
2022/01/22 08:15:48;;;;;;;3.92;1.00;;;6.30;99.90;;;;;;5024663;28;20052;-76
2022/01/22 08:18:14;;;;;;;2.90;1.05;;;6.30;99.90;;;;;;5008941;28;20496;-76
2022/01/22 08:20:39;;;;;;;0.35;0.35;;;6.30;99.90;;;;;;5026674;28;20049;-76
2022/01/22 08:23:05;;;;;;;3.00;1.02;;;6.30;99.90;;;;;;5004964;28;20505;-76
2022/01/22 08:25:32;;;;;;;0.20;0.20;;;6.30;99.90;;;;;;5010008;28;20804;-76
2022/01/22 08:30:34;;;;;;;3.83;1.38;;;6.30;99.90;;;;;;5019835;28;20057;-76
2022/01/22 08:35:53;;;;;;;1.02;0.63;;;6.30;99.90;;;;;;5018788;28;20046;-76
2022/01/22 08:38:24;;;;;;;3.78;0.80;;;6.30;99.90;;;;;;5007049;28;20073;-76
2022/01/22 08:40:50;;;;;;;8.38;2.05;;;6.40;99.90;;;;;;4993471;28;20396;-76
2022/01/22 08:43:17;;;;;;;3.92;1.27;;;6.40;99.90;;;;;;5020395;28;20426;-76
2022/01/22 08:45:43;;;;;;;4.32;1.73;;;6.40;99.90;;;;;;5012234;28;20057;-76
2022/01/22 08:48:09;;;;;;;4.57;1.65;;;6.40;99.90;;;;;;5023992;28;20070;-76
2022/01/22 08:50:35;;;;;;;2.40;0.95;;;6.50;99.90;;;;;;4997600;28;20564;-76
2022/01/22 08:53:02;;;;;;;8.32;2.60;;;6.50;99.90;;;;;;5001314;28;20053;-77
2022/01/22 08:55:27;;;;;;;9.57;2.05;;;6.50;99.90;;;;;;5013304;28;20049;-78
2022/01/22 08:57:53;;;;;;;0.60;0.60;;;6.50;99.90;;;;;;5019480;28;20045;-78
2022/01/22 09:00:20;;;;;;;1.20;0.88;;;6.50;99.90;;;;;;5006742;28;20044;-78
2022/01/22 09:02:47;;;;;;;6.50;1.30;;;6.50;99.90;;;;;;4998030;28;20052;-78
2022/01/22 09:05:16;;;;;;;10.13;1.40;;;6.60;99.90;;;;;;5001298;28;20538;-78
2022/01/22 09:07:42;;;;;;;8.57;2.10;;;6.50;99.90;;;;;;5019241;28;20046;-78
2022/01/22 09:10:08;;;;;;;7.38;1.42;;;6.60;99.90;;;;;;4998431;28;20060;-77
2022/01/22 09:12:33;;;;;;;2.13;0.82;;;6.60;99.90;;;;;;5003035;28;20041;-78
2022/01/22 09:14:59;;;;;;;8.75;1.42;;;6.60;99.90;;;;;;5009934;28;20541;-78
2022/01/22 09:17:24;;;;;;;3.75;1.27;;;6.60;99.90;;;;;;5012283;28;20096;-78
2022/01/22 09:19:56;;;;;;;3.97;0.65;;;6.60;99.90;;;;;;5017561;28;20060;-78
2022/01/22 09:22:22;;;;;;;5.25;1.00;;;6.60;99.90;;;;;;5019884;28;20046;-78
2022/01/22 09:24:49;;;;;;;2.05;1.17;;;6.60;99.90;;;;;;5024616;28;20069;-78
2022/01/22 09:27:16;;;;;;;15.25;1.88;;;6.60;99.90;;;;;;5004713;28;20050;-78
2022/01/22 09:29:41;;;;;;;11.27;1.77;;;6.60;99.90;;;;;;5009563;28;20426;-77
2022/01/22 09:32:07;;;;;;;10.95;1.98;;;6.60;99.90;;;;;;5009277;28;20044;-78
2022/01/22 09:34:33;;;;;;;10.18;1.58;;;6.70;99.90;;;;;;5009233;28;20046;-78
2022/01/22 09:36:58;;;;;;;1.17;1.05;;;6.70;99.90;;;;;;5009597;28;20053;-78
2022/01/22 09:39:24;;;;;;;67.95;2.35;;;6.70;99.90;;;;;;5024875;28;20079;-78
2022/01/22 09:41:49;;;;;;;0.55;0.55;;;6.70;99.90;;;;;;5000170;28;20055;-77
2022/01/22 09:44:15;;;;;;;10.75;1.63;;;6.70;99.90;;;;;;5013032;28;20045;-78
2022/01/22 09:46:43;;;;;;;7.00;2.28;;;6.70;99.90;;;;;;5012500;28;20088;-77
2022/01/22 09:49:10;;;;;;;5.00;1.25;;;6.70;99.90;;;;;;5009047;28;20096;-78
2022/01/22 09:51:36;;;;;;;4.97;1.13;;;6.70;99.90;;;;;;5009481;28;20041;-78
2022/01/22 09:54:02;;;;;;;12.63;0.98;;;6.70;99.90;;;;;;4992758;28;20479;-78
2022/01/22 09:56:29;;;;;;;6.53;1.88;;;6.70;99.90;;;;;;4995103;28;20065;-78
2022/01/22 09:58:55;;;;;;;5.28;1.65;;;6.70;99.90;;;;;;5006776;28;20160;-78
2022/01/22 10:01:30;;;;;;;4.22;1.63;;;6.80;99.90;;;;;;5010599;28;20112;-78
2022/01/22 10:03:58;;;;;;;7.97;1.30;;;6.80;99.90;;;;;;5006328;28;20049;-78
2022/01/22 10:06:27;;;;;;;1.92;1.27;;;6.80;99.90;;;;;;5012875;28;20097;-77
2022/01/22 10:09:11;;;;;;;5.20;1.83;;;6.80;99.90;;;;;;5017835;28;20651;-78
2022/01/22 10:11:37;;;;;;;0.35;0.35;;;6.80;99.90;;;;;;5005026;28;20057;-78
2022/01/22 10:14:04;;;;;;;0.22;0.22;;;6.90;99.90;;;;;;5007976;28;20050;-78
2022/01/22 10:16:38;;;;;;;7.78;2.63;;;6.90;99.90;;;;;;5000935;28;20053;-78
2022/01/22 10:19:17;;;;;;;0.30;0.30;;;6.90;99.90;;;;;;5007610;28;20450;-77
2022/01/22 10:21:50;;;;;;;0.68;0.50;;;6.90;99.90;;;;;;5006428;28;20498;-77
2022/01/22 10:24:28;;;;;;;;;;;6.90;99.90;;;;;;5028813;28;20095;-76
2022/01/22 10:30:12;;;;;;;0.10;0.10;;;7.00;99.90;;;;;;5015258;28;20056;-77
2022/01/22 10:32:49;;;;;;;0.20;0.20;;;7.00;99.90;;;;;;5008659;28;20054;-77
2022/01/22 10:35:23;;;;;;;0.73;0.73;;;7.00;99.90;;;;;;5009145;28;20469;-76
2022/01/22 10:38:01;;;;;;;0.17;0.17;;;7.00;99.90;;;;;;5008315;28;20058;-77
2022/01/22 10:40:30;;;;;;;29.23;1.52;;;7.10;99.90;;;;;;4992132;28;20038;-77
2022/01/22 10:43:17;;;;;;;0.30;0.30;;;7.10;99.90;;;;;;5008194;28;20053;-76
2022/01/22 10:46:08;;;;;;;5.22;1.17;;;7.10;99.90;;;;;;5008426;28;20064;-77
2022/01/22 10:48:39;;;;;;;0.57;0.57;;;7.10;99.90;;;;;;5010456;28;20078;-76
2022/01/22 10:51:14;;;;;;;0.20;0.20;;;7.10;99.90;;;;;;5020475;28;20049;-76
2022/01/22 10:53:49;;;;;;;2.40;0.52;;;7.10;99.90;;;;;;4991935;28;20153;-76
2022/01/22 10:56:20;;;;;;;1.95;1.15;;;7.10;99.90;;;;;;5020747;28;20445;-77
2022/01/22 10:59:02;;;;;;;5.38;0.63;;;7.10;99.90;;;;;;5021381;28;20050;-76
2022/01/22 11:01:51;;;;;;;0.20;0.20;;;7.10;99.90;;;;;;4992144;28;20046;-76
2022/01/22 11:04:25;;;;;;;0.20;0.20;;;7.10;99.90;;;;;;5001049;28;20061;-77
2022/01/22 11:06:58;;;;;;;0.75;0.75;;;7.10;99.90;;;;;;4988186;28;20533;-77
2022/01/22 11:09:26;;;;;;;0.40;0.40;;;7.10;99.90;;;;;;5005058;28;20069;-78
2022/01/22 11:12:04;;;;;;;1.30;1.30;;;7.10;99.90;;;;;;5007003;28;20060;-78
2022/01/22 11:14:37;;;;;;;0.40;0.40;;;7.10;99.90;;;;;;5009086;28;20041;-78
2022/01/22 11:17:05;;;;;;;0.80;0.80;;;7.20;99.90;;;;;;5016215;28;20050;-78
2022/01/22 11:19:35;;;;;;;0.70;0.70;;;7.20;99.90;;;;;;5020624;28;20049;-78
2022/01/22 11:22:10;;;;;;;0.20;0.20;;;7.20;99.90;;;;;;4991883;28;20041;-76
2022/01/22 11:24:40;;;;;;;0.28;0.28;;;7.20;99.90;;;;;;5017911;28;20046;-75
2022/01/22 11:27:08;;;;;;;2.58;1.50;;;7.30;99.90;;;;;;5008869;28;20077;-76
2022/01/22 11:29:48;;;;;;;3.22;0.73;;;7.20;99.90;;;;;;5007298;28;20045;-75
2022/01/22 11:32:17;;;;;;;3.28;1.17;;;7.20;99.90;;;;;;5011085;28;20056;-76
2022/01/22 11:34:47;;;;;;;4.43;1.02;;;7.30;99.90;;;;;;5007856;28;20037;-75
2022/01/22 11:37:18;;;;;;;1.50;1.05;;;7.30;99.90;;;;;;5005250;28;20223;-75
2022/01/22 11:39:44;;;;;;;5.47;1.35;;;7.30;99.90;;;;;;5017408;28;20163;-75
2022/01/22 11:42:09;;;;;;;2.83;1.13;;;7.30;99.90;;;;;;5000913;28;20536;-76
2022/01/22 11:44:48;;;;;;;4.85;1.65;;;7.30;99.90;;;;;;5002687;28;20038;-75
2022/01/22 11:47:17;;;;;;;2.53;0.80;;;7.30;99.90;;;;;;5003900;28;20072;-76
2022/01/22 11:50:09;;;;;;;3.80;1.63;;;7.30;99.90;;;;;;5016726;28;20385;-75
2022/01/22 11:52:40;;;;;;;10.65;3.40;;;7.30;99.90;;;;;;5015141;28;20084;-76
2022/01/22 11:55:15;;;;;;;7.13;2.20;;;7.30;99.90;;;;;;5019410;28;20525;-76
2022/01/22 11:57:42;;;;;;;8.55;2.08;;;7.30;99.90;;;;;;5011635;28;20577;-76
2022/01/22 12:00:28;;;;;;;8.02;2.10;;;7.30;99.90;;;;;;5022838;28;20068;-78
2022/01/22 12:03:03;;;;;;;5.72;0.98;;;7.30;99.90;;;;;;5026435;28;20410;-78
2022/01/22 12:05:29;;;;;;;8.48;2.45;;;7.20;99.90;;;;;;5006609;28;20040;-78
2022/01/22 12:08:00;;;;;;;2.85;2.08;;;7.30;99.90;;;;;;5025948;28;20048;-76
2022/01/22 12:10:42;;;;;;;11.80;3.22;;;7.20;99.90;;;;;;5008353;28;20076;-76
2022/01/22 12:16:15;;;;;;;7.20;2.75;;;7.20;99.90;;;;;;5013015;28;20822;-78
2022/01/22 12:18:49;;;;;;;10.25;3.42;;;7.20;99.90;;;;;;5017224;28;20628;-78
2022/01/22 12:21:38;;;;;;;11.02;3.17;;;7.20;99.90;;;;;;5013292;28;20517;-78
2022/01/22 12:24:10;;;;;;;5.22;1.85;;;7.30;99.90;;;;;;5012096;28;20040;-78
2022/01/22 12:26:39;;;;;;;9.30;4.63;;;7.20;99.90;;;;;;5023937;28;20496;-78
2022/01/22 12:29:29;;;;;;;15.93;2.90;;;7.30;99.90;;;;;;5008746;28;20080;-76
2022/01/22 12:32:17;;;;;;;10.43;2.60;;;7.30;99.90;;;;;;4995394;28;20054;-75
2022/01/22 12:34:54;;;;;;;5.43;2.00;;;7.40;99.90;;;;;;5004846;28;20037;-78
2022/01/22 12:37:26;;;;;;;9.23;2.47;;;7.40;99.90;;;;;;5010823;28;20055;-78
2022/01/22 12:39:54;;;;;;;6.40;1.83;;;7.40;99.90;;;;;;5008031;28;20060;-77
2022/01/22 12:42:31;;;;;;;5.22;1.92;;;7.40;99.90;;;;;;5000267;28;20041;-77
2022/01/22 12:45:06;;;;;;;5.38;2.45;;;7.50;99.90;;;;;;5004305;28;20133;-77
2022/01/22 12:47:33;;;;;;;10.43;2.53;;;7.50;99.90;;;;;;5003358;28;20450;-78
2022/01/22 12:50:05;;;;;;;7.43;2.70;;;7.50;99.90;;;;;;4998258;28;20049;-78
2022/01/22 12:52:33;;;;;;;13.20;2.95;;;7.50;99.90;;;;;;5002046;28;20091;-77
2022/01/22 12:54:59;;;;;;;8.13;2.88;;;7.50;99.90;;;;;;5018743;28;20072;-78
2022/01/22 12:57:27;;;;;;;9.43;2.20;;;7.50;99.90;;;;;;5017026;28;20034;-77
2022/01/22 12:59:56;;;;;;;5.28;1.85;;;7.50;99.90;;;;;;4989431;28;20056;-77
2022/01/22 13:02:37;;;;;;;7.45;2.13;;;7.40;99.90;;;;;;4996155;28;20067;-77
2022/01/22 13:05:04;;;;;;;6.20;1.67;;;7.40;99.90;;;;;;5010255;28;20383;-77
2022/01/22 13:07:55;;;;;;;9.25;2.13;;;7.30;99.90;;;;;;5010376;28;20054;-76
2022/01/22 13:10:26;;;;;;;11.88;2.03;;;7.30;99.90;;;;;;4994295;28;20107;-76
2022/01/22 13:12:53;;;;;;;8.38;2.17;;;7.30;99.90;;;;;;5025029;28;21309;-76
2022/01/22 13:15:20;;;;;;;12.75;2.78;;;7.30;99.90;;;;;;5006994;28;20052;-76
2022/01/22 13:17:51;;;;;;;2.85;1.05;;;7.30;99.90;;;;;;5016724;28;20056;-77
2022/01/22 13:20:25;;;;;;;8.23;1.48;;;7.30;99.90;;;;;;5013430;28;20118;-77
2022/01/22 13:22:52;;;;;;;1.60;1.35;;;7.30;99.90;;;;;;4999103;28;20046;-77
2022/01/22 13:25:18;;;;;;;7.63;1.10;;;7.30;99.90;;;;;;5037577;28;20053;-76
2022/01/22 13:28:03;;;;;;;3.55;1.27;;;7.30;99.90;;;;;;5007485;28;20528;-76
2022/01/22 13:30:41;;;;;;;2.40;0.98;;;7.30;99.90;;;;;;5021576;28;20065;-77
2022/01/22 13:36:21;;;;;;;3.75;1.00;;;7.30;99.90;;;;;;5009161;28;20054;-77
2022/01/22 13:39:21;;;;;;;3.85;1.65;;;7.40;99.90;;;;;;5028261;28;20046;-76
2022/01/22 13:50:07;;;;;;;4.13;0.77;;;7.20;99.90;;;;;;5040318;28;20893;-76
2022/01/22 13:52:34;;;;;;;1.88;1.13;;;7.20;99.90;;;;;;5028839;28;20042;-76
2022/01/22 13:54:59;;;;;;;5.15;1.30;;;7.20;99.90;;;;;;5027674;28;20049;-76
2022/01/22 13:57:29;;;;;;;7.72;1.45;;;7.20;99.90;;;;;;5008177;28;20110;-77
2022/01/22 13:59:57;;;;;;;4.03;1.27;;;7.10;99.90;;;;;;4993821;28;20045;-77
2022/01/22 14:02:52;;;;;;;2.90;1.35;;;7.10;99.90;;;;;;5026643;28;20053;-76
2022/01/22 14:05:17;;;;;;;4.97;0.95;;;7.10;99.90;;;;;;5020383;28;20046;-77
2022/01/22 14:07:48;;;;;;;6.60;1.35;;;7.10;99.90;;;;;;4994080;28;20048;-77
2022/01/22 14:10:19;;;;;;;11.05;1.52;;;7.20;99.90;;;;;;5010917;28;20085;-76
2022/01/22 14:12:50;;;;;;;7.40;2.00;;;7.20;99.90;;;;;;5006567;28;20457;-76
2022/01/22 14:15:28;;;;;;;8.48;1.40;;;7.20;99.90;;;;;;4991943;28;20038;-77
2022/01/22 14:20:46;;;;;;;3.38;1.17;;;7.20;99.90;;;;;;5022610;28;20112;-76
2022/01/22 14:23:19;;;;;;;3.17;1.45;;;7.20;99.90;;;;;;5011953;28;20052;-76
2022/01/22 14:26:03;;;;;;;2.80;1.38;;;7.20;99.90;;;;;;5016465;28;20426;-76
2022/01/22 14:28:54;;;;;;;6.38;1.25;;;7.20;99.90;;;;;;5020426;28;20124;-77
2022/01/22 14:31:33;;;;;;;2.35;1.00;;;7.20;99.90;;;;;;5014100;28;20422;-76
2022/01/22 14:34:03;;;;;;;10.65;2.00;;;7.20;99.90;;;;;;4996931;28;20371;-77
2022/01/22 14:36:37;;;;;;;9.70;2.22;;;7.20;99.90;;;;;;5007206;28;20057;-77
2022/01/22 14:44:49;;;;;;;4.20;1.42;;;7.10;99.90;;;;;;5023254;28;20053;-76
2022/01/22 14:47:22;;;;;;;7.35;3.00;;;7.20;99.90;;;;;;4994556;28;20039;-77
2022/01/22 14:49:54;;;;;;;10.65;3.25;;;7.20;99.90;;;;;;5014669;28;20576;-76
2022/01/22 14:52:23;;;;;;;5.68;2.00;;;7.10;99.90;;;;;;5037124;28;20511;-77
2022/01/22 14:54:50;;;;;;;8.43;3.25;;;7.10;99.90;;;;;;5007893;28;20053;-77
2022/01/22 14:57:20;;;;;;;11.38;4.28;;;7.10;99.90;;;;;;5001215;28;20046;-76
2022/01/22 14:59:46;;;;;;;5.05;0.98;;;7.00;99.90;;;;;;4999718;28;20041;-76